createdAt,value
2023-05-18T00:00:14.367Z,11.57
2023-05-18T00:02:42.007Z,9.63
2023-05-18T00:05:10.536Z,13.40
2023-05-18T00:07:37.711Z,7.50
2023-05-18T00:10:05.025Z,9.35
2023-05-18T00:12:32.130Z,8.98
2023-05-18T00:14:59.228Z,7.25
2023-05-18T00:17:26.321Z,9.02
2023-05-18T00:19:53.440Z,10.00
2023-05-18T00:22:20.564Z,13.38
2023-05-18T00:24:48.587Z,7.50
2023-05-18T00:27:15.846Z,5.80
2023-05-18T00:29:42.865Z,11.88
2023-05-18T00:32:12.364Z,6.22
2023-05-18T00:34:39.390Z,6.78
2023-05-18T00:37:06.522Z,10.10
2023-05-18T00:39:33.591Z,12.55
2023-05-18T00:42:03.099Z,9.27
2023-05-18T00:44:30.207Z,5.63
2023-05-18T00:46:57.240Z,6.22
2023-05-18T00:49:24.303Z,13.15
2023-05-18T00:51:51.457Z,17.30
2023-05-18T00:54:19.513Z,13.75
2023-05-18T00:56:48.534Z,4.85
2023-05-18T00:59:16.613Z,6.85
2023-05-18T01:01:46.703Z,8.23
2023-05-18T01:04:16.477Z,8.15
2023-05-18T01:06:43.940Z,7.72
2023-05-18T01:09:12.526Z,4.80
2023-05-18T01:11:58.236Z,7.47
2023-05-18T01:14:34.410Z,6.53
2023-05-18T01:17:28.916Z,5.40
2023-05-18T01:20:26.906Z,7.45
2023-05-18T01:23:15.300Z,11.20
2023-05-18T01:25:50.552Z,4.70
2023-05-18T01:30:47.976Z,5.57
2023-05-18T01:33:15.270Z,8.05
2023-05-18T01:35:48.214Z,6.10
2023-05-18T01:38:22.749Z,5.38
2023-05-18T01:41:08.457Z,12.30
2023-05-18T01:46:19.164Z,4.53
2023-05-18T01:48:52.321Z,5.88
2023-05-18T01:51:21.642Z,5.53
2023-05-18T01:54:00.832Z,5.68
2023-05-18T01:56:28.178Z,3.50
2023-05-18T01:58:55.562Z,3.25
2023-05-18T02:01:24.211Z,5.20
2023-05-18T02:03:51.848Z,6.50
2023-05-18T02:06:19.067Z,6.32
2023-05-18T02:08:46.461Z,5.90
2023-05-18T02:11:13.570Z,7.40
2023-05-18T02:13:41.152Z,7.97
2023-05-18T02:16:08.724Z,10.52
2023-05-18T02:18:36.576Z,2.85
2023-05-18T02:21:04.407Z,4.88
2023-05-18T02:23:32.193Z,7.53
2023-05-18T02:25:59.217Z,6.22
2023-05-18T02:28:26.307Z,2.80
2023-05-18T02:30:53.382Z,5.25
2023-05-18T02:33:26.590Z,6.43
2023-05-18T02:35:54.050Z,5.82
2023-05-18T02:38:21.576Z,5.80
2023-05-18T02:40:48.715Z,6.47
2023-05-18T02:43:17.197Z,14.40
2023-05-18T02:45:45.396Z,7.35
2023-05-18T02:48:12.546Z,5.63
2023-05-18T02:50:39.844Z,10.32
2023-05-18T02:53:07.149Z,2.17
2023-05-18T02:55:34.276Z,5.32
2023-05-18T02:58:15.152Z,4.63
2023-05-18T03:01:12.536Z,5.40
2023-05-18T03:03:47.498Z,6.15
2023-05-18T03:06:16.221Z,6.47
2023-05-18T03:08:44.476Z,6.15
2023-05-18T03:11:13.044Z,8.18
2023-05-18T03:13:40.136Z,7.05
2023-05-18T03:16:07.479Z,2.03
2023-05-18T03:18:35.168Z,6.32
2023-05-18T03:21:03.577Z,5.20
2023-05-18T03:23:30.631Z,5.13
2023-05-18T03:25:57.946Z,7.95
2023-05-18T03:28:28.618Z,3.03
2023-05-18T03:30:55.998Z,4.72
2023-05-18T03:33:23.377Z,4.70
2023-05-18T03:35:52.467Z,14.65
2023-05-18T03:38:19.736Z,3.75
2023-05-18T03:40:54.021Z,7.57
2023-05-18T03:43:21.238Z,6.13
2023-05-18T03:45:48.551Z,8.30
2023-05-18T03:48:16.039Z,14.25
2023-05-18T03:50:43.962Z,11.85
2023-05-18T03:53:11.627Z,12.80
2023-05-18T03:55:38.785Z,9.07
2023-05-18T03:58:05.954Z,11.32
2023-05-18T04:00:33.061Z,4.80
2023-05-18T04:03:00.866Z,4.72
2023-05-18T04:05:28.734Z,5.57
2023-05-18T04:07:57.777Z,3.10
2023-05-18T04:10:24.975Z,7.00
2023-05-18T04:12:52.110Z,12.05
2023-05-18T04:15:19.182Z,6.78
2023-05-18T04:17:46.369Z,5.57
2023-05-18T04:20:14.890Z,7.70
2023-05-18T04:22:48.666Z,12.68
2023-05-18T04:27:50.593Z,6.25
2023-05-18T04:30:19.141Z,10.00
2023-05-18T04:32:46.394Z,8.13
2023-05-18T04:35:13.557Z,10.20
2023-05-18T04:37:41.259Z,8.65
2023-05-18T04:40:17.255Z,6.47
2023-05-18T04:42:48.441Z,4.03
2023-05-18T04:45:23.157Z,6.18
2023-05-18T04:47:54.640Z,6.43
2023-05-18T04:50:24.027Z,10.57
2023-05-18T04:52:52.816Z,8.35
2023-05-18T04:55:29.229Z,8.88
2023-05-18T04:58:10.993Z,5.55
2023-05-18T05:00:38.704Z,6.35
2023-05-18T05:03:06.523Z,6.60
2023-05-18T05:05:34.984Z,7.43
2023-05-18T05:08:02.207Z,7.40
2023-05-18T05:10:30.172Z,6.15
2023-05-18T05:12:57.281Z,5.50
2023-05-18T05:15:25.060Z,5.97
2023-05-18T05:17:52.490Z,9.93
2023-05-18T05:20:19.925Z,7.43
2023-05-18T05:22:47.856Z,13.15
2023-05-18T05:25:17.873Z,7.68
2023-05-18T05:27:45.166Z,7.60
2023-05-18T05:30:13.177Z,3.30
2023-05-18T05:32:42.052Z,4.88
2023-05-18T05:35:09.573Z,4.60
2023-05-18T05:37:37.374Z,11.32
2023-05-18T05:40:06.813Z,6.80
2023-05-18T05:42:39.426Z,9.80
2023-05-18T05:45:08.702Z,8.98
2023-05-18T05:47:43.138Z,4.38
2023-05-18T05:50:10.984Z,7.20
2023-05-18T05:52:38.478Z,5.80
2023-05-18T05:55:06.781Z,5.15
2023-05-18T05:57:33.925Z,8.02
2023-05-18T06:00:01.787Z,5.03
2023-05-18T06:02:32.248Z,19.90
2023-05-18T06:04:59.713Z,12.10
2023-05-18T06:07:27.462Z,7.53
2023-05-18T06:09:54.918Z,7.70
2023-05-18T06:12:22.055Z,5.43
2023-05-18T06:14:49.408Z,3.58
2023-05-18T06:17:16.575Z,7.60
2023-05-18T06:19:44.818Z,6.25
2023-05-18T06:22:12.025Z,9.32
2023-05-18T06:24:46.739Z,8.20
2023-05-18T06:27:36.956Z,10.82
2023-05-18T06:30:20.539Z,9.00
2023-05-18T06:33:10.318Z,8.52
2023-05-18T06:35:37.674Z,7.70
2023-05-18T06:38:05.048Z,10.23
2023-05-18T06:40:32.200Z,9.02
2023-05-18T06:42:59.401Z,7.63
2023-05-18T06:45:36.103Z,6.72
2023-05-18T06:48:19.087Z,5.95
2023-05-18T06:50:46.278Z,13.93
2023-05-18T06:53:13.928Z,6.65
2023-05-18T06:55:41.082Z,12.77
2023-05-18T06:58:08.145Z,5.75
2023-05-18T07:00:35.345Z,2.70
2023-05-18T07:03:03.767Z,15.98
2023-05-18T07:05:31.183Z,13.48
2023-05-18T07:07:58.467Z,7.80
2023-05-18T07:10:25.700Z,5.25
2023-05-18T07:12:52.929Z,9.13
2023-05-18T07:15:20.042Z,11.85
2023-05-18T07:17:47.298Z,11.52
2023-05-18T07:20:14.464Z,12.88
2023-05-18T07:22:41.487Z,15.55
2023-05-18T07:25:09.029Z,5.45
2023-05-18T07:27:36.077Z,12.20
2023-05-18T07:30:03.605Z,8.02
2023-05-18T07:32:30.788Z,11.77
2023-05-18T07:34:57.825Z,11.65
2023-05-18T07:37:24.876Z,6.28
2023-05-18T07:39:52.644Z,7.93
2023-05-18T07:42:19.684Z,8.30
2023-05-18T07:44:46.833Z,14.18
2023-05-18T07:47:13.925Z,6.25
2023-05-18T07:49:40.953Z,8.40
2023-05-18T07:52:08.600Z,9.70
2023-05-18T07:54:35.780Z,9.65
2023-05-18T07:57:04.355Z,8.95
2023-05-18T07:59:31.708Z,16.50
2023-05-18T08:02:00.240Z,7.57
2023-05-18T08:04:27.605Z,11.48
2023-05-18T08:06:55.120Z,7.78
2023-05-18T08:09:22.372Z,7.72
2023-05-18T08:11:51.146Z,8.75
2023-05-18T08:14:18.309Z,12.65
2023-05-18T08:16:45.874Z,10.15
2023-05-18T08:19:13.022Z,13.45
2023-05-18T08:21:40.768Z,4.93
2023-05-18T08:24:09.489Z,5.18
2023-05-18T08:26:36.684Z,6.10
2023-05-18T08:29:09.805Z,10.95
2023-05-18T08:31:38.289Z,9.73
2023-05-18T08:34:06.318Z,9.93
2023-05-18T08:36:35.537Z,7.63
2023-05-18T08:39:03.091Z,15.70
2023-05-18T08:41:32.423Z,7.70
2023-05-18T08:44:38.905Z,11.48
2023-05-18T08:47:10.474Z,6.68
2023-05-18T08:49:38.394Z,12.20
2023-05-18T08:52:08.254Z,8.10
2023-05-18T08:54:38.041Z,11.50
2023-05-18T08:57:09.019Z,7.63
2023-05-18T08:59:41.277Z,13.90
2023-05-18T09:02:09.008Z,5.82
2023-05-18T09:04:38.023Z,9.48
2023-05-18T09:07:06.983Z,10.20
2023-05-18T09:09:35.906Z,6.43
2023-05-18T09:12:04.202Z,10.57
2023-05-18T09:14:32.410Z,10.13
2023-05-18T09:16:59.482Z,5.55
2023-05-18T09:19:26.931Z,10.45
2023-05-18T09:21:54.074Z,7.90
2023-05-18T09:24:24.401Z,7.72
2023-05-18T09:26:51.966Z,11.20
2023-05-18T09:29:21.217Z,9.88
2023-05-18T09:31:48.908Z,7.47
2023-05-18T09:34:19.128Z,11.25
2023-05-18T09:36:57.861Z,9.18
2023-05-18T09:39:25.090Z,10.38
2023-05-18T09:41:59.525Z,11.85
2023-05-18T09:44:34.444Z,12.80
2023-05-18T09:47:02.210Z,13.05
2023-05-18T09:49:31.118Z,9.25
2023-05-18T09:52:00.264Z,13.80
2023-05-18T09:54:27.634Z,27.77
2023-05-18T09:57:08.867Z,28.50
2023-05-18T09:59:37.847Z,12.43
2023-05-18T10:02:06.248Z,9.80
2023-05-18T10:04:43.437Z,13.10
2023-05-18T10:07:15.848Z,15.48
2023-05-18T10:09:45.300Z,20.02
2023-05-18T10:12:14.094Z,9.32
2023-05-18T10:14:45.678Z,14.15
2023-05-18T10:17:16.264Z,20.60
2023-05-18T10:19:44.950Z,12.55
2023-05-18T10:22:21.078Z,9.07
2023-05-18T10:24:52.380Z,19.00
2023-05-18T10:27:28.667Z,12.35
2023-05-18T10:29:58.664Z,16.75
2023-05-18T10:32:26.376Z,12.48
2023-05-18T10:34:55.386Z,15.80
2023-05-18T10:37:31.059Z,19.73
2023-05-18T10:40:00.600Z,15.48
2023-05-18T10:42:30.900Z,19.48
2023-05-18T10:44:58.372Z,44.17
2023-05-18T10:47:26.532Z,64.07
2023-05-18T10:49:54.416Z,64.10
2023-05-18T10:52:21.877Z,58.78
2023-05-18T10:54:49.219Z,70.97
2023-05-18T10:57:20.138Z,58.65
2023-05-18T10:59:48.619Z,49.78
2023-05-18T11:02:18.778Z,52.88
2023-05-18T11:04:51.932Z,45.03
2023-05-18T11:07:21.812Z,29.00
2023-05-18T11:09:49.917Z,24.48
2023-05-18T11:12:20.882Z,25.35
2023-05-18T11:14:53.110Z,18.80
2023-05-18T11:17:25.693Z,20.77
2023-05-18T11:20:06.001Z,22.27
2023-05-18T11:22:47.844Z,19.48
2023-05-18T11:25:28.547Z,16.67
2023-05-18T11:28:02.297Z,20.85
2023-05-18T11:30:31.312Z,21.48
2023-05-18T11:33:15.347Z,25.02
2023-05-18T11:35:57.553Z,24.58
2023-05-18T11:38:47.980Z,29.38
2023-05-18T11:41:42.721Z,28.00
2023-05-18T11:44:12.935Z,36.92
2023-05-18T11:47:03.914Z,19.70
2023-05-18T11:49:54.035Z,22.45
2023-05-18T11:52:23.192Z,17.10
2023-05-18T11:54:54.342Z,20.27
2023-05-18T11:57:35.851Z,14.18
2023-05-18T12:00:10.766Z,17.42
2023-05-18T12:02:45.182Z,17.23
2023-05-18T12:05:13.968Z,12.23
2023-05-18T12:07:41.784Z,20.23
2023-05-18T12:10:11.610Z,12.32
2023-05-18T12:12:40.008Z,15.07
2023-05-18T12:15:09.448Z,15.05
2023-05-18T12:17:42.666Z,15.65
2023-05-18T12:20:11.985Z,16.25
2023-05-18T12:22:40.606Z,18.27
2023-05-18T12:25:08.502Z,21.63
2023-05-18T12:27:43.966Z,16.67
2023-05-18T12:30:22.141Z,11.50
2023-05-18T12:32:51.045Z,17.17
2023-05-18T12:35:25.547Z,11.05
2023-05-18T12:37:55.767Z,14.77
2023-05-18T12:40:23.574Z,18.50
2023-05-18T12:42:57.592Z,10.73
2023-05-18T12:45:28.262Z,13.37
2023-05-18T12:47:56.445Z,17.30
2023-05-18T12:50:28.534Z,13.80
2023-05-18T12:52:56.940Z,21.90
2023-05-18T12:55:28.391Z,22.95
2023-05-18T12:58:18.363Z,18.15
2023-05-18T13:00:47.325Z,16.98
2023-05-18T13:03:20.469Z,16.35
2023-05-18T13:06:05.129Z,26.20
2023-05-18T13:08:33.190Z,18.60
2023-05-18T13:11:12.688Z,26.25
2023-05-18T13:13:57.372Z,22.40
2023-05-18T13:16:24.549Z,17.73
2023-05-18T13:18:59.313Z,23.95
2023-05-18T13:21:26.972Z,19.33
2023-05-18T13:23:54.181Z,30.25
2023-05-18T13:26:23.125Z,26.02
2023-05-18T13:28:53.308Z,26.15
2023-05-18T13:31:21.162Z,18.48
2023-05-18T13:33:49.717Z,25.60
2023-05-18T13:36:17.873Z,18.95
2023-05-18T13:38:44.935Z,17.73
2023-05-18T13:41:14.999Z,29.02
2023-05-18T13:43:43.001Z,16.90
2023-05-18T13:46:10.321Z,18.98
2023-05-18T13:48:37.686Z,21.02
2023-05-18T13:51:04.898Z,18.27
2023-05-18T13:53:32.091Z,18.63
2023-05-18T13:55:59.136Z,14.38
2023-05-18T13:58:26.168Z,17.35
2023-05-18T14:00:54.692Z,13.05
2023-05-18T14:03:22.211Z,13.88
2023-05-18T14:05:49.755Z,13.82
2023-05-18T14:08:16.901Z,12.60
2023-05-18T14:10:43.976Z,14.93
2023-05-18T14:13:11.358Z,11.93
2023-05-18T14:15:38.543Z,13.20
2023-05-18T14:18:05.799Z,14.60
2023-05-18T14:20:34.074Z,9.70
2023-05-18T14:23:03.617Z,10.98
2023-05-18T14:25:31.558Z,11.15
2023-05-18T14:27:58.609Z,13.05
2023-05-18T14:30:25.713Z,18.45
2023-05-18T14:32:52.987Z,16.67
2023-05-18T14:35:20.154Z,16.08
2023-05-18T14:37:47.244Z,11.45
2023-05-18T14:40:14.402Z,15.70
2023-05-18T14:42:41.483Z,13.90
2023-05-18T14:45:09.116Z,14.68
2023-05-18T14:47:36.190Z,11.32
2023-05-18T14:50:03.447Z,13.60
2023-05-18T14:52:30.534Z,15.13
2023-05-18T14:54:57.584Z,14.80
2023-05-18T14:57:26.638Z,18.20
2023-05-18T14:59:54.111Z,8.75
2023-05-18T15:02:21.379Z,16.13
2023-05-18T15:04:48.612Z,10.75
2023-05-18T15:07:15.816Z,12.80
2023-05-18T15:09:42.984Z,15.65
2023-05-18T15:12:10.219Z,14.60
2023-05-18T15:14:38.246Z,11.70
2023-05-18T15:17:07.492Z,14.50
2023-05-18T15:19:34.696Z,12.57
2023-05-18T15:22:01.745Z,12.25
2023-05-18T15:24:28.911Z,19.27
2023-05-18T15:26:56.204Z,13.25
2023-05-18T15:29:23.632Z,13.15
2023-05-18T15:31:51.476Z,13.75
2023-05-18T15:34:18.671Z,9.68
2023-05-18T15:36:46.343Z,14.05
2023-05-18T15:39:13.538Z,18.80
2023-05-18T15:41:40.895Z,16.02
2023-05-18T15:44:07.916Z,14.85
2023-05-18T15:46:36.004Z,12.98
2023-05-18T15:49:04.131Z,12.02
2023-05-18T15:51:31.751Z,13.05
2023-05-18T15:53:58.867Z,11.48
2023-05-18T15:56:26.246Z,10.13
2023-05-18T15:58:53.431Z,15.30
2023-05-18T16:01:20.623Z,13.25
2023-05-18T16:03:47.817Z,15.95
2023-05-18T16:06:14.920Z,18.98
2023-05-18T16:08:41.942Z,10.48
2023-05-18T16:11:09.051Z,7.55
2023-05-18T16:13:36.135Z,10.90
2023-05-18T16:16:03.750Z,15.77
2023-05-18T16:18:30.883Z,8.40
2023-05-18T16:20:57.983Z,10.68
2023-05-18T16:23:24.977Z,10.60
2023-05-18T16:25:52.255Z,15.45
2023-05-18T16:28:19.420Z,10.65
2023-05-18T16:30:46.482Z,14.30
2023-05-18T16:33:13.502Z,8.38
2023-05-18T16:35:40.764Z,6.95
2023-05-18T16:38:07.815Z,10.73
2023-05-18T16:40:34.910Z,8.80
2023-05-18T16:43:02.011Z,10.63
2023-05-18T16:45:29.189Z,18.85
2023-05-18T16:47:57.155Z,9.63
2023-05-18T16:50:24.262Z,15.73
2023-05-18T16:52:51.381Z,8.60
2023-05-18T16:55:18.595Z,7.07
2023-05-18T16:57:45.764Z,8.98
2023-05-18T17:00:13.550Z,12.77
2023-05-18T17:02:40.789Z,10.90
2023-05-18T17:05:11.382Z,12.13
2023-05-18T17:07:38.730Z,6.40
2023-05-18T17:10:06.388Z,14.40
2023-05-18T17:12:33.882Z,8.35
2023-05-18T17:15:02.758Z,16.13
2023-05-18T17:17:30.253Z,8.75
2023-05-18T17:19:57.451Z,9.57
2023-05-18T17:22:24.623Z,7.63
2023-05-18T17:24:51.641Z,8.93
2023-05-18T17:27:18.713Z,6.13
2023-05-18T17:29:45.711Z,11.30
2023-05-18T17:32:12.702Z,9.18
2023-05-18T17:34:40.510Z,9.45
2023-05-18T17:37:07.561Z,8.50
2023-05-18T17:39:34.698Z,12.82
2023-05-18T17:42:01.944Z,9.75
2023-05-18T17:44:29.604Z,10.18
2023-05-18T17:46:56.912Z,12.10
2023-05-18T17:49:24.026Z,11.13
2023-05-18T17:51:52.455Z,7.78
2023-05-18T17:54:19.566Z,8.25
2023-05-18T17:56:46.824Z,12.93
2023-05-18T17:59:13.879Z,11.38
2023-05-18T18:01:41.053Z,13.18
2023-05-18T18:04:08.134Z,20.15
2023-05-18T18:06:38.413Z,9.38
2023-05-18T18:09:05.435Z,9.45
2023-05-18T18:11:32.574Z,13.43
2023-05-18T18:14:00.292Z,13.05
2023-05-18T18:16:27.415Z,13.00
2023-05-18T18:18:54.575Z,10.02
2023-05-18T18:21:21.709Z,9.25
2023-05-18T18:23:48.755Z,14.15
2023-05-18T18:26:15.898Z,17.25
2023-05-18T18:28:43.080Z,14.30
2023-05-18T18:31:10.094Z,14.25
2023-05-18T18:33:37.144Z,17.40
2023-05-18T18:36:05.879Z,12.90
2023-05-18T18:38:34.116Z,10.43
2023-05-18T18:41:04.460Z,17.70
2023-05-18T18:43:31.661Z,21.13
2023-05-18T18:45:59.736Z,19.30
2023-05-18T18:48:27.168Z,13.35
2023-05-18T18:50:54.394Z,15.48
2023-05-18T18:53:21.555Z,14.13
2023-05-18T18:55:48.698Z,18.05
2023-05-18T18:58:16.276Z,11.93
2023-05-18T19:00:43.812Z,13.68
2023-05-18T19:03:11.295Z,16.25
2023-05-18T19:05:39.265Z,17.48
2023-05-18T19:08:06.472Z,14.50
2023-05-18T19:10:34.448Z,18.50
2023-05-18T19:13:05.835Z,17.85
2023-05-18T19:15:36.917Z,17.60
2023-05-18T19:18:04.202Z,12.98
2023-05-18T19:20:31.375Z,12.55
2023-05-18T19:22:58.430Z,12.35
2023-05-18T19:25:26.431Z,17.27
2023-05-18T19:27:53.916Z,17.58
2023-05-18T19:30:22.034Z,11.45
2023-05-18T19:32:50.006Z,8.65
2023-05-18T19:35:19.776Z,14.02
2023-05-18T19:37:47.806Z,15.82
2023-05-18T19:40:15.430Z,11.88
2023-05-18T19:42:42.428Z,11.07
2023-05-18T19:45:09.604Z,11.35
2023-05-18T19:47:36.870Z,18.15
2023-05-18T19:50:04.733Z,11.90
2023-05-18T19:52:33.756Z,17.10
2023-05-18T19:55:02.456Z,16.95
2023-05-18T19:57:29.897Z,16.27
2023-05-18T19:59:57.983Z,14.90
2023-05-18T20:02:25.778Z,11.30
2023-05-18T20:04:53.834Z,11.52
2023-05-18T20:07:22.768Z,14.82
2023-05-18T20:09:53.136Z,10.80
2023-05-18T20:12:20.771Z,14.20
2023-05-18T20:14:48.615Z,15.20
2023-05-18T20:17:17.023Z,16.30
2023-05-18T20:19:49.941Z,18.77
2023-05-18T20:22:20.519Z,15.07
2023-05-18T20:24:49.089Z,13.43
2023-05-18T20:27:16.896Z,14.80
2023-05-18T20:29:44.017Z,16.08
2023-05-18T20:32:11.248Z,17.08
2023-05-18T20:34:38.457Z,12.57
2023-05-18T20:37:05.903Z,13.60
2023-05-18T20:39:33.105Z,17.15
2023-05-18T20:42:00.325Z,15.73
2023-05-18T20:44:28.936Z,10.93
2023-05-18T20:46:56.056Z,11.90
2023-05-18T20:49:25.070Z,14.13
2023-05-18T20:51:52.192Z,15.13
2023-05-18T20:54:21.460Z,11.35
2023-05-18T20:56:48.773Z,18.60
2023-05-18T20:59:16.363Z,13.60
2023-05-18T21:01:43.505Z,14.80
2023-05-18T21:04:12.734Z,18.27
2023-05-18T21:06:41.192Z,15.00
2023-05-18T21:09:08.539Z,16.48
2023-05-18T21:11:36.023Z,13.43
2023-05-18T21:14:03.140Z,17.85
2023-05-18T21:16:30.330Z,13.18
2023-05-18T21:18:57.547Z,17.55
2023-05-18T21:21:24.640Z,20.88
2023-05-18T21:23:52.038Z,15.93
2023-05-18T21:26:19.217Z,18.75
2023-05-18T21:28:46.222Z,20.70
2023-05-18T21:31:13.347Z,21.23
2023-05-18T21:33:42.099Z,15.77
2023-05-18T21:36:10.152Z,16.48
2023-05-18T21:38:37.284Z,17.00
2023-05-18T21:41:04.380Z,13.18
2023-05-18T21:43:31.419Z,11.40
2023-05-18T21:45:58.849Z,21.35
2023-05-18T21:48:25.979Z,14.98
2023-05-18T21:50:53.013Z,12.27
2023-05-18T21:53:20.036Z,15.75
2023-05-18T21:55:47.146Z,14.75
2023-05-18T21:58:14.149Z,26.85
2023-05-18T22:00:41.270Z,19.20
2023-05-18T22:03:08.434Z,18.38
2023-05-18T22:05:35.568Z,16.30
2023-05-18T22:08:02.638Z,23.52
2023-05-18T22:10:31.360Z,17.63
2023-05-18T22:12:58.602Z,16.80
2023-05-18T22:15:25.685Z,17.85
2023-05-18T22:17:54.156Z,18.23
2023-05-18T22:20:21.620Z,17.27
2023-05-18T22:22:48.835Z,17.63
2023-05-18T22:25:18.143Z,15.10
2023-05-18T22:27:45.847Z,15.43
2023-05-18T22:30:14.279Z,16.20
2023-05-18T22:32:41.378Z,17.83
2023-05-18T22:35:09.425Z,23.95
2023-05-18T22:37:36.821Z,24.70
2023-05-18T22:40:06.587Z,21.52
2023-05-18T22:42:33.886Z,17.20
2023-05-18T22:45:01.377Z,16.73
2023-05-18T22:47:29.733Z,17.77
2023-05-18T22:49:56.972Z,15.85
2023-05-18T22:52:24.030Z,18.30
2023-05-18T22:54:51.078Z,18.48
2023-05-18T22:57:18.121Z,18.60
2023-05-18T22:59:45.185Z,20.63
2023-05-18T23:02:12.454Z,18.50
2023-05-18T23:04:39.539Z,17.35
2023-05-18T23:07:06.822Z,20.52
2023-05-18T23:09:33.957Z,22.90
2023-05-18T23:12:01.292Z,15.77
2023-05-18T23:14:32.644Z,16.17
2023-05-18T23:17:00.580Z,24.40
2023-05-18T23:19:28.139Z,20.05
2023-05-18T23:21:56.116Z,15.35
2023-05-18T23:24:23.157Z,16.45
2023-05-18T23:26:50.229Z,17.73
2023-05-18T23:29:17.457Z,21.50
2023-05-18T23:31:44.537Z,25.20
2023-05-18T23:34:11.860Z,23.17
2023-05-18T23:36:42.736Z,24.33
2023-05-18T23:39:10.320Z,21.98
2023-05-18T23:41:37.915Z,19.98
2023-05-18T23:44:05.477Z,22.75
2023-05-18T23:46:32.781Z,18.33
2023-05-18T23:49:00.306Z,13.45
2023-05-18T23:51:32.173Z,17.88
2023-05-18T23:53:59.648Z,17.30
2023-05-18T23:56:26.944Z,19.77
2023-05-18T23:58:54.269Z,21.35
